Time;durP1;ratioP1;P1;durP2;ratioP2;P2;SDS_P1;SDS_P2;PMS_P1;PMS_P2;Temp;Humidity;BMP_temperature;BMP_pressure;BME280_temperature;BME280_humidity;BME280_pressure;Samples;Min_cycle;Max_cycle;Signal;HPM_P1;HPM_P2
2021/07/21 00:00:30;;;;;;;13.23;10.10;;;;;;;22.82;63.00;101097.56;5113103;28;20601;-67
2021/07/21 00:02:56;;;;;;;14.07;11.20;;;;;;;22.80;63.17;101097.31;5112670;28;20507;-67
2021/07/21 00:05:23;;;;;;;13.80;10.30;;;;;;;22.81;63.12;101103.72;5113158;28;20170;-67
2021/07/21 00:07:49;;;;;;;14.00;10.37;;;;;;;22.86;62.99;101102.97;5113089;28;20181;-66
2021/07/21 00:10:20;;;;;;;12.07;10.07;;;;;;;22.85;63.10;101105.06;5094886;28;20186;-66
2021/07/21 00:15:35;;;;;;;14.77;10.50;;;;;;;22.79;63.27;101101.44;5092883;28;20580;-67
2021/07/21 00:18:04;;;;;;;19.50;10.83;;;;;;;22.81;63.25;101106.56;5092299;28;20648;-67
2021/07/21 00:20:31;;;;;;;16.77;11.00;;;;;;;22.82;62.99;101111.72;5092598;28;20186;-67
2021/07/21 00:22:57;;;;;;;17.07;10.13;;;;;;;22.77;63.00;101115.28;5091938;28;20186;-67
2021/07/21 00:25:23;;;;;;;15.03;11.00;;;;;;;22.77;62.94;101111.69;5100963;28;20690;-67
2021/07/21 00:27:49;;;;;;;16.63;11.33;;;;;;;22.69;62.82;101113.44;5092208;28;20183;-67
2021/07/21 00:30:16;;;;;;;15.37;10.33;;;;;;;22.76;62.92;101118.59;5092028;28;20648;-67
2021/07/21 00:32:42;;;;;;;16.30;11.40;;;;;;;22.37;62.88;101055.41;5091563;28;20182;-67
2021/07/21 00:35:10;;;;;;;12.63;10.20;;;;;;;22.63;62.92;101116.19;5091812;28;20252;-67
2021/07/21 00:37:37;;;;;;;14.03;10.83;;;;;;;22.61;63.00;101118.00;5074456;28;20190;-67
2021/07/21 00:40:11;;;;;;;15.37;10.73;;;;;;;22.55;62.97;101122.81;5092070;28;20194;-67
2021/07/21 00:42:36;;;;;;;15.10;10.90;;;;;;;22.57;62.62;101114.63;5088364;28;20672;-67
2021/07/21 00:45:03;;;;;;;13.93;10.70;;;;;;;22.62;62.48;101117.47;5112278;28;20174;-67
2021/07/21 00:47:28;;;;;;;15.50;11.50;;;;;;;22.59;62.36;101117.72;5112447;28;20186;-67
2021/07/21 00:49:54;;;;;;;14.63;10.80;;;;;;;22.62;62.30;101117.47;5112133;28;20178;-67
2021/07/21 00:52:19;;;;;;;14.27;11.43;;;;;;;22.66;62.00;101114.41;5112125;28;20174;-67
2021/07/21 00:54:46;;;;;;;16.53;11.20;;;;;;;21.89;61.84;101001.69;5112065;28;20195;-67
2021/07/21 00:57:12;;;;;;;15.07;11.73;;;;;;;22.61;61.97;101109.53;5112123;28;20206;-67
2021/07/21 00:59:38;;;;;;;16.47;11.10;;;;;;;22.49;61.82;101096.59;5111675;28;20182;-67
2021/07/21 01:02:04;;;;;;;16.83;11.60;;;;;;;21.71;61.76;100993.59;5093429;28;20197;-67
2021/07/21 01:04:32;;;;;;;16.57;11.70;;;;;;;22.03;61.66;101037.47;5093981;28;20234;-67
2021/07/21 01:07:01;;;;;;;22.33;11.60;;;;;;;22.49;61.70;101117.16;5112074;28;20174;-67
2021/07/21 01:09:27;;;;;;;17.53;11.37;;;;;;;22.51;61.47;101117.41;5112175;28;20189;-66
2021/07/21 01:12:02;;;;;;;16.70;10.80;;;;;;;22.43;61.42;101113.50;5111975;28;20644;-67
2021/07/21 01:14:40;;;;;;;15.43;11.43;;;;;;;22.44;61.28;101119.91;5111587;28;20218;-66
2021/07/21 01:17:13;;;;;;;17.00;11.10;;;;;;;22.51;60.87;101123.06;5111782;28;20170;-66
2021/07/21 01:20:01;;;;;;;15.67;11.07;;;;;;;21.74;60.64;100997.47;5111752;28;20175;-66
2021/07/21 01:22:33;;;;;;;18.27;12.00;;;;;;;22.56;60.53;101141.34;5111688;28;20228;-66
2021/07/21 01:25:15;;;;;;;17.33;11.27;;;;;;;22.54;60.85;101116.41;5111209;28;20207;-66
2021/07/21 01:27:50;;;;;;;13.07;10.77;;;;;;;22.60;60.54;101122.88;5111438;28;20658;-66
2021/07/21 01:30:18;;;;;;;14.53;10.73;;;;;;;22.53;60.29;101119.75;5111470;28;20181;-66
2021/07/21 01:32:51;;;;;;;14.70;11.23;;;;;;;22.51;60.24;101111.75;5111094;28;20178;-67
2021/07/21 01:35:23;;;;;;;14.67;11.03;;;;;;;22.54;60.23;101113.59;5111018;28;20198;-67
2021/07/21 01:37:55;;;;;;;16.20;11.03;;;;;;;22.57;59.89;101111.81;5111346;28;20181;-67
2021/07/21 01:40:27;;;;;;;15.97;11.37;;;;;;;22.60;60.00;101117.22;5111321;28;20159;-66
2021/07/21 01:42:57;;;;;;;14.63;11.17;;;;;;;22.62;59.94;101120.31;5094013;28;20229;-67
2021/07/21 01:45:26;;;;;;;14.17;10.67;;;;;;;22.65;59.71;101112.88;5090744;28;20267;-67
2021/07/21 01:47:52;;;;;;;12.63;10.37;;;;;;;22.09;59.27;101026.97;5072605;28;20270;-67
2021/07/21 01:50:19;;;;;;;16.30;10.83;;;;;;;22.68;59.60;101118.28;5090833;28;20257;-67
2021/07/21 01:52:48;;;;;;;12.60;10.17;;;;;;;22.65;59.56;101129.84;5090678;28;20229;-66
2021/07/21 01:55:16;;;;;;;13.73;10.80;;;;;;;22.18;59.46;101045.78;5090590;28;20210;-67
2021/07/21 01:57:42;;;;;;;15.97;11.20;;;;;;;22.54;59.69;101119.25;5090761;28;20182;-67
2021/07/21 02:00:11;;;;;;;14.27;10.97;;;;;;;22.34;59.63;101093.13;5090616;28;20179;-67
2021/07/21 02:02:38;;;;;;;17.47;10.30;;;;;;;22.44;59.73;101120.72;5090483;28;20702;-67
2021/07/21 02:05:05;;;;;;;14.57;10.63;;;;;;;22.40;59.43;101117.31;5090552;28;20286;-67
2021/07/21 02:07:34;;;;;;;16.70;11.17;;;;;;;22.40;59.45;101120.13;5090635;28;20659;-67
2021/07/21 02:10:00;;;;;;;14.03;10.43;;;;;;;22.41;59.53;101115.25;5090378;28;20183;-67
2021/07/21 02:12:26;;;;;;;15.07;10.83;;;;;;;22.28;59.20;101114.91;5090577;28;20175;-66
2021/07/21 02:14:52;;;;;;;16.13;10.63;;;;;;;21.57;59.23;101021.88;5090154;28;20207;-67
2021/07/21 02:17:19;;;;;;;14.63;10.33;;;;;;;22.30;58.93;101135.69;5090632;28;20275;-66
2021/07/21 02:19:46;;;;;;;15.37;10.37;;;;;;;21.27;59.41;100975.44;5090509;28;20179;-66
2021/07/21 02:22:16;;;;;;;15.13;10.97;;;;;;;22.08;59.43;101109.34;5090309;28;20641;-67
2021/07/21 02:24:44;;;;;;;16.20;10.27;;;;;;;22.16;59.37;101122.50;5090297;28;20183;-67
2021/07/21 02:27:10;;;;;;;13.70;10.80;;;;;;;22.06;59.46;101129.59;5090323;28;20228;-66
2021/07/21 02:29:36;;;;;;;18.20;10.57;;;;;;;22.11;59.19;101117.56;5090123;28;20187;-67
2021/07/21 02:32:15;;;;;;;14.17;10.00;;;;;;;22.13;58.75;101119.91;5089964;28;20201;-67
2021/07/21 02:34:44;;;;;;;14.97;10.47;;;;;;;21.33;58.84;101007.31;5090705;28;20201;-66
2021/07/21 02:37:14;;;;;;;15.80;9.67;;;;;;;22.04;58.92;101129.31;5089899;28;20179;-66
2021/07/21 02:39:39;;;;;;;17.80;10.57;;;;;;;22.01;59.01;101126.72;5090415;28;20217;-66
2021/07/21 02:42:05;;;;;;;16.53;9.93;;;;;;;21.86;58.59;101098.59;5100181;28;20257;-65
2021/07/21 02:44:30;;;;;;;15.97;10.67;;;;;;;21.99;58.88;101120.78;5110891;28;20170;-66
2021/07/21 02:46:56;;;;;;;13.70;10.57;;;;;;;22.00;58.90;101125.19;5110420;28;20174;-66
2021/07/21 02:49:22;;;;;;;14.37;10.60;;;;;;;21.97;58.96;101134.63;5110365;28;20235;-66
2021/07/21 02:52:11;;;;;;;17.47;10.70;;;;;;;21.93;58.76;101129.22;5110795;28;20227;-67
2021/07/21 02:54:46;;;;;;;15.40;11.13;;;;;;;21.87;58.77;101139.69;5110804;28;20189;-66
2021/07/21 02:57:28;;;;;;;15.17;10.30;;;;;;;21.96;58.38;101138.72;5114103;28;20194;-67
2021/07/21 02:59:59;;;;;;;16.03;10.50;;;;;;;21.45;58.20;101076.63;5114288;28;20182;-66
2021/07/21 03:02:27;;;;;;;14.47;10.17;;;;;;;21.98;58.20;101148.25;5114118;28;20739;-66
2021/07/21 03:04:55;;;;;;;14.63;9.73;;;;;;;22.02;58.29;101146.00;5114503;28;20687;-66
2021/07/21 03:07:23;;;;;;;15.37;10.53;;;;;;;21.96;58.50;101155.66;5113995;28;20174;-66
2021/07/21 03:09:52;;;;;;;14.97;10.37;;;;;;;21.62;58.55;101105.78;5100168;28;20731;-66
2021/07/21 03:12:18;;;;;;;13.90;10.50;;;;;;;21.85;58.68;101152.75;5093373;28;20171;-66
2021/07/21 03:14:44;;;;;;;12.80;10.17;;;;;;;21.86;58.92;101140.94;5093768;28;20226;-67
2021/07/21 03:17:14;;;;;;;14.80;10.07;;;;;;;21.90;59.57;101163.31;5093446;28;20179;-66
2021/07/21 03:19:52;;;;;;;14.00;10.40;;;;;;;21.97;59.70;101168.50;5093419;28;20179;-67
2021/07/21 03:22:24;;;;;;;15.60;10.30;;;;;;;22.00;59.68;101170.34;5093510;28;20202;-67
2021/07/21 03:24:50;;;;;;;14.27;10.27;;;;;;;21.89;59.43;101168.16;5093531;28;20186;-66
2021/07/21 03:27:18;;;;;;;15.80;10.30;;;;;;;21.93;59.58;101184.88;5093353;28;20175;-66
2021/07/21 03:29:54;;;;;;;16.97;9.77;;;;;;;21.77;59.89;101174.19;5093654;28;20187;-67
2021/07/21 03:32:23;;;;;;;12.93;10.60;;;;;;;21.97;59.68;101186.22;5092882;28;20186;-67
2021/07/21 03:34:49;;;;;;;12.13;9.73;;;;;;;21.96;59.88;101190.28;5093392;28;20680;-66
2021/07/21 03:37:16;;;;;;;16.47;9.87;;;;;;;21.94;59.80;101201.31;5093158;28;20175;-67
2021/07/21 03:39:43;;;;;;;16.50;10.40;;;;;;;21.51;60.06;101148.75;5093314;28;20171;-66
2021/07/21 03:42:09;;;;;;;13.87;9.67;;;;;;;21.59;59.78;101154.72;5103766;28;20237;-67
2021/07/21 03:44:36;;;;;;;17.03;10.00;;;;;;;21.93;60.11;101196.94;5113818;28;20215;-67
2021/07/21 03:47:02;;;;;;;15.00;10.00;;;;;;;21.88;60.15;101210.97;5113211;28;20185;-67
2021/07/21 03:49:29;;;;;;;13.93;9.57;;;;;;;21.89;60.17;101206.88;5113335;28;20178;-66
2021/07/21 03:51:54;;;;;;;16.40;9.70;;;;;;;21.67;59.94;101182.00;5113649;28;20644;-66
2021/07/21 03:54:22;;;;;;;14.03;10.07;;;;;;;21.83;60.11;101222.97;5113105;28;20202;-66
2021/07/21 03:56:50;;;;;;;11.53;9.93;;;;;;;21.84;60.12;101244.28;5113276;28;20178;-67
2021/07/21 03:59:18;;;;;;;14.03;10.13;;;;;;;21.87;60.09;101224.34;5107188;28;20183;-67
2021/07/21 04:01:45;;;;;;;15.07;10.47;;;;;;;21.87;59.81;101229.19;5090016;28;20777;-66
2021/07/21 04:04:15;;;;;;;12.80;10.23;;;;;;;21.84;60.12;101230.16;5084687;28;20605;-66
2021/07/21 04:06:40;;;;;;;16.77;10.27;;;;;;;21.87;59.78;101251.75;5071193;28;20179;-67
2021/07/21 04:09:25;;;;;;;14.43;10.27;;;;;;;21.86;59.49;101216.34;5108849;27;20185;-66
2021/07/21 04:11:54;;;;;;;15.43;10.23;;;;;;;21.98;59.36;101246.25;5133806;27;20256;-67
2021/07/21 04:14:20;;;;;;;13.87;9.73;;;;;;;22.10;59.30;101242.28;5133450;27;20258;-67
2021/07/21 04:16:49;;;;;;;12.87;9.50;;;;;;;22.00;59.29;101246.53;5133336;27;20178;-66
2021/07/21 04:19:15;;;;;;;14.13;9.90;;;;;;;21.88;59.50;101223.06;5133310;27;20174;-67
2021/07/21 04:21:45;;;;;;;14.20;9.47;;;;;;;22.11;59.31;101241.75;5133504;27;20182;-67
2021/07/21 04:24:11;;;;;;;14.07;9.97;;;;;;;22.14;59.31;101246.44;5126472;27;20264;-67
2021/07/21 04:26:40;;;;;;;14.50;10.03;;;;;;;22.18;59.44;101257.50;5112842;28;20174;-66
2021/07/21 04:29:06;;;;;;;15.57;10.00;;;;;;;21.39;59.58;101141.41;5112281;28;20186;-67
2021/07/21 04:31:36;;;;;;;12.50;9.80;;;;;;;22.15;59.67;101250.78;5112743;28;20178;-67
2021/07/21 04:34:03;;;;;;;16.77;9.80;;;;;;;22.16;59.69;101240.28;5112354;28;20170;-67
2021/07/21 04:36:29;;;;;;;17.27;10.03;;;;;;;22.32;59.41;101265.84;5112562;28;20223;-67
2021/07/21 04:38:55;;;;;;;16.10;10.80;;;;;;;21.71;59.47;101148.75;5112095;28;20656;-67
2021/07/21 04:41:24;;;;;;;12.27;10.13;;;;;;;22.29;59.82;101257.59;5112240;28;20302;-67
2021/07/21 04:43:50;;;;;;;13.10;10.83;;;;;;;22.26;59.80;101258.63;5112345;28;20426;-66
2021/07/21 04:46:17;;;;;;;19.67;11.30;;;;;;;22.32;59.75;101262.28;5112378;28;20707;-67
2021/07/21 04:48:43;;;;;;;14.27;10.47;;;;;;;22.39;59.68;101268.25;5111898;28;20648;-67
2021/07/21 04:51:10;;;;;;;14.53;10.70;;;;;;;22.40;59.56;101266.19;5112665;28;20174;-67
2021/07/21 04:53:37;;;;;;;13.87;11.20;;;;;;;22.41;59.57;101260.06;5112205;28;20170;-67
2021/07/21 04:56:03;;;;;;;13.53;11.37;;;;;;;22.39;59.67;101270.28;5112437;28;20230;-66
2021/07/21 04:58:28;;;;;;;15.90;11.40;;;;;;;22.41;60.03;101262.88;5107455;28;20743;-67
2021/07/21 05:00:56;;;;;;;12.50;11.13;;;;;;;22.52;60.02;101259.44;5081636;28;20195;-66
2021/07/21 05:03:22;;;;;;;16.77;10.93;;;;;;;22.44;60.08;101290.16;5076428;28;20190;-66
2021/07/21 05:05:48;;;;;;;17.40;11.13;;;;;;;22.43;60.43;101276.50;5078550;28;20198;-67
2021/07/21 05:08:13;;;;;;;15.83;11.27;;;;;;;21.83;60.31;101186.28;5069800;28;20194;-67
2021/07/21 05:10:40;;;;;;;15.10;10.53;;;;;;;21.62;60.24;101146.03;5092738;28;20190;-67
2021/07/21 05:13:06;;;;;;;16.53;11.07;;;;;;;22.61;59.91;101284.69;5087841;28;20580;-67
2021/07/21 05:15:32;;;;;;;14.87;11.50;;;;;;;22.69;60.31;101291.41;5082109;28;20236;-67
2021/07/21 05:17:58;;;;;;;17.63;10.97;;;;;;;22.79;59.54;101298.44;5092961;28;20216;-67
2021/07/21 05:20:24;;;;;;;15.73;11.13;;;;;;;22.83;59.42;101296.94;5087352;28;20186;-67
2021/07/21 05:22:49;;;;;;;13.27;11.13;;;;;;;22.97;59.69;101304.50;5089368;28;20183;-67
2021/07/21 05:25:16;;;;;;;14.07;10.43;;;;;;;23.05;59.03;101297.13;5080911;28;20187;-67
2021/07/21 05:27:42;;;;;;;14.43;11.40;;;;;;;23.14;58.93;101313.88;5086042;28;20197;-67
2021/07/21 05:30:08;;;;;;;15.07;10.90;;;;;;;23.15;58.47;101309.03;5087305;28;20581;-66
2021/07/21 05:32:33;;;;;;;13.77;10.20;;;;;;;23.16;57.97;101296.44;5083430;28;20187;-67
2021/07/21 05:34:59;;;;;;;11.67;10.30;;;;;;;23.30;57.93;101318.94;5084189;28;20268;-67
2021/07/21 05:37:24;;;;;;;14.27;11.10;;;;;;;23.16;57.86;101302.88;5084904;28;20184;-67
2021/07/21 05:39:50;;;;;;;15.43;11.10;;;;;;;23.20;57.83;101299.84;5085668;28;20175;-67
2021/07/21 05:42:15;;;;;;;15.30;11.10;;;;;;;23.36;56.88;101321.78;5092467;28;20389;-67
2021/07/21 05:44:41;;;;;;;14.40;11.63;;;;;;;23.34;57.12;101324.38;5094778;28;20264;-67
2021/07/21 05:47:07;;;;;;;16.00;11.23;;;;;;;23.46;57.33;101326.78;5099022;28;20607;-67
2021/07/21 05:49:32;;;;;;;14.67;10.53;;;;;;;23.53;56.88;101323.47;5099151;28;20604;-66
2021/07/21 05:51:58;;;;;;;12.87;10.63;;;;;;;23.20;57.20;101263.06;5099481;28;20182;-67
2021/07/21 05:54:23;;;;;;;14.87;11.20;;;;;;;23.53;57.19;101314.19;5094792;28;20210;-67
2021/07/21 05:56:49;;;;;;;15.80;11.20;;;;;;;23.46;56.66;101321.09;5096380;28;20183;-67
2021/07/21 05:59:15;;;;;;;16.77;10.90;;;;;;;23.35;57.07;101308.94;5107771;28;20240;-67
2021/07/21 06:01:40;;;;;;;18.37;11.37;;;;;;;23.36;57.30;101316.94;5100749;28;20667;-66
2021/07/21 06:04:05;;;;;;;13.77;11.17;;;;;;;23.38;56.48;101325.66;5103916;28;20261;-66
2021/07/21 06:06:31;;;;;;;14.47;10.80;;;;;;;23.08;57.08;101284.03;5107194;28;20183;-67
2021/07/21 06:08:57;;;;;;;14.50;11.73;;;;;;;23.40;57.45;101323.13;5102024;28;20287;-67
2021/07/21 06:11:23;;;;;;;18.27;11.70;;;;;;;23.43;57.58;101332.66;5098767;28;20189;-66
2021/07/21 06:13:49;;;;;;;17.57;11.97;;;;;;;23.46;56.32;101338.09;5100290;28;20183;-66
2021/07/21 06:16:15;;;;;;;15.00;11.40;;;;;;;23.50;56.29;101335.78;5108131;28;20193;-66
2021/07/21 06:18:42;;;;;;;17.40;11.43;;;;;;;22.93;56.33;101249.50;5107024;28;20556;-67
2021/07/21 06:21:08;;;;;;;13.87;11.87;;;;;;;23.62;57.14;101340.25;5108229;28;20186;-66
2021/07/21 06:23:34;;;;;;;17.23;11.93;;;;;;;22.98;56.73;101238.22;5105921;28;20186;-67
2021/07/21 06:25:59;;;;;;;13.37;11.67;;;;;;;23.73;55.56;101353.66;5107610;28;20182;-67
2021/07/21 06:28:26;;;;;;;19.23;12.03;;;;;;;23.66;55.76;101351.31;5107637;28;20178;-67
2021/07/21 06:30:51;;;;;;;18.17;12.13;;;;;;;23.78;55.99;101350.09;5109692;28;20182;-67
2021/07/21 06:33:18;;;;;;;16.17;12.03;;;;;;;23.86;55.59;101363.28;5109153;28;20260;-67
2021/07/21 06:35:47;;;;;;;16.93;12.30;;;;;;;23.93;55.22;101356.38;5098782;28;20706;-67
2021/07/21 06:38:13;;;;;;;13.90;11.77;;;;;;;23.93;54.82;101370.53;5111186;28;20629;-67
2021/07/21 06:40:39;;;;;;;15.97;11.70;;;;;;;23.97;54.18;101354.88;5111666;28;20261;-67
2021/07/21 06:43:05;;;;;;;16.50;12.20;;;;;;;24.07;54.39;101361.88;5110458;28;20250;-67
2021/07/21 06:45:30;;;;;;;16.40;11.80;;;;;;;23.45;53.17;101260.16;5093490;28;20216;-66
2021/07/21 06:47:56;;;;;;;18.97;12.63;;;;;;;24.37;54.12;101384.91;5112147;28;20570;-66
2021/07/21 06:50:23;;;;;;;14.30;11.33;;;;;;;24.35;52.69;101368.41;5110945;28;20213;-67
2021/07/21 06:52:49;;;;;;;14.03;11.03;;;;;;;24.41;53.32;101380.53;5109815;28;20181;-66
2021/07/21 06:55:15;;;;;;;14.73;11.77;;;;;;;24.09;52.07;101299.84;5093069;28;20202;-67
2021/07/21 06:57:41;;;;;;;15.17;12.33;;;;;;;24.57;52.41;101376.22;5107503;28;20182;-67
2021/07/21 07:00:07;;;;;;;15.73;12.23;;;;;;;24.68;52.42;101379.88;5102958;28;20569;-67
2021/07/21 07:02:33;;;;;;;17.07;11.50;;;;;;;24.65;52.08;101368.78;5107796;28;20668;-67
2021/07/21 07:04:58;;;;;;;15.93;11.43;;;;;;;24.63;50.98;101374.97;5111430;28;20227;-67
2021/07/21 07:07:24;;;;;;;17.07;12.13;;;;;;;24.54;50.98;101366.69;5100380;28;20401;-67
2021/07/21 07:09:49;;;;;;;12.73;11.33;;;;;;;24.59;51.11;101382.16;5111518;28;20232;-67
2021/07/21 07:12:15;;;;;;;15.23;11.87;;;;;;;24.56;50.77;101369.00;5109285;28;20637;-67
2021/07/21 07:14:41;;;;;;;16.97;12.13;;;;;;;24.50;51.28;101373.84;5109269;28;20226;-66
2021/07/21 07:17:07;;;;;;;16.47;12.20;;;;;;;24.37;50.55;101363.00;5110746;28;20178;-67
2021/07/21 07:19:32;;;;;;;16.40;12.70;;;;;;;24.41;50.44;101377.69;5110637;28;20178;-67
2021/07/21 07:21:59;;;;;;;14.50;12.53;;;;;;;24.35;50.37;101396.75;5110232;28;20266;-66
2021/07/21 07:24:26;;;;;;;15.37;12.27;;;;;;;24.16;50.22;101341.81;5109215;28;20246;-66
2021/07/21 07:26:51;;;;;;;15.40;12.37;;;;;;;23.89;50.93;101305.66;5093023;28;20562;-66
2021/07/21 07:29:17;;;;;;;16.63;13.10;;;;;;;24.41;49.74;101360.69;5111044;28;20212;-66
2021/07/21 07:31:42;;;;;;;20.17;13.00;;;;;;;24.43;49.29;101366.66;5103503;27;20194;-66
2021/07/21 07:34:08;;;;;;;17.33;13.00;;;;;;;24.50;49.69;101374.63;5102147;28;20607;-66
2021/07/21 07:36:34;;;;;;;16.13;13.50;;;;;;;24.63;49.06;101362.84;5110331;28;20289;-66
2021/07/21 07:39:00;;;;;;;13.83;11.87;;;;;;;24.55;49.24;101331.38;5111067;28;20962;-66
2021/07/21 07:41:26;;;;;;;17.83;12.50;;;;;;;24.76;48.37;101363.13;5109998;28;20376;-66
2021/07/21 07:43:52;;;;;;;17.10;12.83;;;;;;;24.80;48.74;101363.66;5109017;28;20636;-66
2021/07/21 07:46:18;;;;;;;16.93;12.83;;;;;;;24.71;49.21;101336.31;5102132;28;20212;-67
2021/07/21 07:48:44;;;;;;;15.33;12.73;;;;;;;25.08;49.28;101373.72;5100042;28;20240;-66
2021/07/21 07:51:09;;;;;;;16.10;12.50;;;;;;;25.20;48.29;101368.84;5110070;28;20174;-67
2021/07/21 07:53:35;;;;;;;15.63;12.30;;;;;;;24.76;47.40;101300.75;5108784;28;20618;-66
2021/07/21 07:56:01;;;;;;;18.00;12.57;;;;;;;25.26;46.79;101367.59;5110065;28;20202;-67
2021/07/21 07:58:27;;;;;;;14.60;12.20;;;;;;;25.32;46.36;101361.91;5091514;28;20175;-66
2021/07/21 08:00:55;;;;;;;14.73;11.80;;;;;;;25.35;47.67;101358.81;5110122;28;20272;-66
2021/07/21 08:03:21;;;;;;;15.40;12.70;;;;;;;25.27;46.99;101312.41;5107458;28;20629;-67
2021/07/21 08:05:48;;;;;;;17.03;12.50;;;;;;;25.52;46.07;101353.88;5107632;28;20264;-66
2021/07/21 08:08:13;;;;;;;15.53;12.87;;;;;;;25.54;45.32;101368.31;5109813;28;20186;-66
2021/07/21 08:10:38;;;;;;;16.90;11.63;;;;;;;25.49;45.29;101351.31;5109887;28;20220;-66
2021/07/21 08:13:04;;;;;;;15.27;11.70;;;;;;;25.57;46.08;101361.63;5108498;28;20189;-67
2021/07/21 08:15:30;;;;;;;14.30;11.73;;;;;;;25.66;46.99;101357.72;5108978;28;20202;-67
2021/07/21 08:17:55;;;;;;;15.63;11.63;;;;;;;25.82;46.31;101371.09;5110150;28;20238;-66
2021/07/21 08:20:21;;;;;;;17.17;11.80;;;;;;;25.70;46.29;101361.09;5109573;28;20185;-66
2021/07/21 08:22:46;;;;;;;14.00;11.20;;;;;;;25.80;44.82;101357.44;5109347;28;20255;-66
2021/07/21 08:25:15;;;;;;;14.17;11.47;;;;;;;25.72;44.34;101362.13;5109144;28;20647;-66
2021/07/21 08:27:42;;;;;;;17.53;11.83;;;;;;;25.78;45.52;101362.88;5106969;28;20186;-66
2021/07/21 08:30:13;;;;;;;15.87;11.83;;;;;;;25.84;45.70;101360.78;5106002;28;20182;-66
2021/07/21 08:32:41;;;;;;;12.63;10.97;;;;;;;26.01;46.02;101364.38;5107859;28;20186;-66
2021/07/21 08:35:06;;;;;;;14.13;12.10;;;;;;;25.69;45.41;101300.69;5108862;28;20567;-66
2021/07/21 08:37:32;;;;;;;14.67;12.60;;;;;;;26.22;44.89;101350.59;5109438;28;20193;-66
2021/07/21 08:40:01;;;;;;;17.13;12.70;;;;;;;26.18;45.64;101359.41;5110430;28;20189;-66
2021/07/21 08:42:27;;;;;;;13.90;11.63;;;;;;;26.18;42.96;101369.97;5108238;28;20229;-66
2021/07/21 08:44:53;;;;;;;14.67;10.83;;;;;;;25.98;43.12;101305.78;5108587;28;20175;-66
2021/07/21 08:47:18;;;;;;;16.53;12.00;;;;;;;26.41;43.48;101362.91;5089154;28;20206;-67
2021/07/21 08:49:44;;;;;;;16.13;11.20;;;;;;;26.55;43.00;101365.44;5108042;28;20186;-66
2021/07/21 08:52:11;;;;;;;13.20;10.93;;;;;;;26.45;43.06;101363.41;5101956;28;20203;-66
2021/07/21 08:54:37;;;;;;;14.27;10.50;;;;;;;26.69;43.13;101363.56;5097112;28;20695;-67
2021/07/21 08:57:04;;;;;;;15.73;10.57;;;;;;;26.80;42.71;101369.16;5108861;28;20186;-66
2021/07/21 08:59:30;;;;;;;13.00;11.07;;;;;;;27.00;41.81;101349.63;5109062;28;20174;-66
2021/07/21 09:01:56;;;;;;;13.10;10.53;;;;;;;26.94;41.51;101365.97;5103375;28;20205;-66
2021/07/21 09:04:22;;;;;;;13.23;10.87;;;;;;;27.16;41.73;101360.09;5103603;28;20182;-66
2021/07/21 09:06:47;;;;;;;15.30;10.70;;;;;;;27.19;41.98;101364.00;5108443;28;20639;-66
2021/07/21 09:09:13;;;;;;;14.50;11.23;;;;;;;26.70;42.68;101271.25;5104717;28;20186;-67
2021/07/21 09:11:38;;;;;;;13.52;10.23;;;;;;;26.99;41.17;101362.31;5106933;28;20188;-66
2021/07/21 09:14:05;;;;;;;12.87;9.90;;;;;;;27.23;41.30;101375.88;5090252;28;20190;-67
2021/07/21 09:16:30;;;;;;;12.37;9.77;;;;;;;27.02;41.21;101335.63;5108215;28;20617;-66
2021/07/21 09:18:59;;;;;;;12.73;9.20;;;;;;;27.10;41.22;101387.03;5109026;28;20273;-66
2021/07/21 09:21:26;;;;;;;12.70;9.30;;;;;;;26.98;41.20;101379.91;5108714;28;20189;-66
2021/07/21 09:24:00;;;;;;;14.73;9.07;;;;;;;26.96;42.37;101382.50;5107640;28;20205;-67
2021/07/21 09:26:25;;;;;;;12.57;9.07;;;;;;;26.81;42.24;101374.31;5107913;28;20215;-66
2021/07/21 09:28:51;;;;;;;10.47;8.80;;;;;;;26.85;41.61;101382.56;5107334;28;20579;-66
2021/07/21 09:31:39;;;;;;;14.40;9.43;;;;;;;26.81;42.34;101396.31;5109019;28;20264;-65
2021/07/21 09:34:13;;;;;;;15.23;9.13;;;;;;;26.89;42.14;101372.47;5101788;28;20272;-66
2021/07/21 09:36:39;;;;;;;11.10;9.23;;;;;;;26.65;42.61;101321.19;5104691;28;20191;-67
2021/07/21 09:39:06;;;;;;;15.27;9.73;;;;;;;27.15;42.45;101383.38;5098092;28;20216;-67
2021/07/21 09:41:32;;;;;;;12.10;9.70;;;;;;;26.87;42.31;101345.88;5106488;28;20221;-66
2021/07/21 09:44:02;;;;;;;11.33;8.87;;;;;;;27.04;42.07;101378.56;5108758;28;20178;-67
2021/07/21 09:46:28;;;;;;;10.70;8.43;;;;;;;26.86;38.82;101338.63;5107741;28;20194;-67
2021/07/21 09:48:53;;;;;;;12.77;8.37;;;;;;;26.94;40.94;101374.50;5108376;28;20566;-60
2021/07/21 09:51:28;;;;;;;12.53;8.80;;;;;;;27.19;42.30;101376.16;5104237;28;20616;-61
2021/07/21 09:53:54;;;;;;;13.90;9.25;;;;;;;27.06;42.21;101369.47;5081523;28;20612;-61
2021/07/21 09:56:30;;;;;;;15.27;9.33;;;;;;;26.69;41.49;101316.00;5082852;28;20265;-60
2021/07/21 09:59:21;;;;;;;11.93;9.03;;;;;;;27.19;40.78;101376.16;5093187;28;20259;-61
2021/07/21 10:01:48;;;;;;;12.70;8.67;;;;;;;27.03;40.37;101388.38;5092814;28;20657;-62
2021/07/21 10:04:16;;;;;;;12.37;8.53;;;;;;;27.08;40.10;101381.13;5102746;28;20189;-60
2021/07/21 10:06:41;;;;;;;11.17;9.50;;;;;;;27.27;39.97;101377.09;5104140;28;20178;-60
2021/07/21 10:09:07;;;;;;;12.63;9.00;;;;;;;27.53;38.43;101382.31;5107037;28;20182;-61
2021/07/21 10:11:35;;;;;;;10.43;8.70;;;;;;;27.38;39.44;101377.00;5108158;28;20185;-61
2021/07/21 10:14:03;;;;;;;14.73;9.43;;;;;;;27.02;38.97;101372.63;5107680;28;20796;-60
2021/07/21 10:16:46;;;;;;;11.73;8.93;;;;;;;27.33;39.96;101372.13;5100639;28;20182;-61
2021/07/21 10:19:13;;;;;;;10.52;9.10;;;;;;;27.32;38.90;101364.13;5100375;28;20182;-61
2021/07/21 10:21:42;;;;;;;10.80;9.07;;;;;;;27.42;38.57;101376.72;5101279;28;20648;-61
2021/07/21 10:24:08;;;;;;;11.77;9.00;;;;;;;27.75;39.36;101373.56;5105726;28;20178;-60
2021/07/21 10:26:34;;;;;;;11.77;9.05;;;;;;;27.04;37.67;101275.38;5105359;28;20278;-60
2021/07/21 10:29:01;;;;;;;13.85;9.15;;;;;;;27.01;37.65;101250.81;5099061;28;20631;-60
2021/07/21 10:31:28;;;;;;;12.45;8.73;;;;;;;27.80;37.37;101345.03;5097185;28;20190;-61
2021/07/21 10:33:54;;;;;;;15.03;9.47;;;;;;;27.86;36.38;101362.84;5088977;28;20182;-60
2021/07/21 10:36:20;;;;;;;14.30;9.15;;;;;;;27.55;37.60;101326.41;5095580;28;20756;-60
2021/07/21 10:38:46;;;;;;;11.15;8.75;;;;;;;27.91;38.57;101353.47;5106438;28;20182;-60
2021/07/21 10:41:15;;;;;;;12.10;9.30;;;;;;;27.99;38.79;101334.44;5107957;28;20238;-61
2021/07/21 10:43:46;;;;;;;11.05;9.35;;;;;;;28.01;38.07;101346.09;5106448;28;20574;-60
2021/07/21 10:46:45;;;;;;;11.38;9.15;;;;;;;28.15;37.30;101341.25;5105664;28;20183;-61
2021/07/21 10:49:35;;;;;;;9.73;8.50;;;;;;;28.16;37.25;101328.53;5048419;28;20194;-61
2021/07/21 10:55:15;;;;;;;11.98;8.65;;;;;;;28.25;36.42;101331.78;5081249;28;20222;-60
2021/07/21 11:00:23;;;;;;;13.02;8.68;;;;;;;27.84;35.75;101334.09;5105215;28;20209;-60
2021/07/21 11:02:51;;;;;;;13.77;9.07;;;;;;;27.94;36.97;101349.53;5107035;28;20186;-60
2021/07/21 11:05:39;;;;;;;10.93;8.43;;;;;;;27.74;36.27;101269.50;5107119;28;20185;-61
2021/07/21 11:08:06;;;;;;;11.98;8.82;;;;;;;28.19;34.98;101345.34;5088280;28;20178;-60
2021/07/21 11:10:40;;;;;;;13.43;9.07;;;;;;;27.92;35.88;101326.50;5105995;28;20277;-60
2021/07/21 11:13:10;;;;;;;11.73;8.60;;;;;;;27.81;35.63;101340.88;5103426;28;20231;-61
2021/07/21 11:15:37;;;;;;;11.40;8.10;;;;;;;27.58;36.92;101339.53;5106357;28;20210;-60
2021/07/21 11:18:21;;;;;;;11.10;8.67;;;;;;;27.58;37.33;101333.84;5110202;28;20214;-60
2021/07/21 11:21:07;;;;;;;12.10;8.23;;;;;;;27.85;36.89;101327.09;5111340;28;20666;-61
2021/07/21 11:23:38;;;;;;;10.10;8.75;;;;;;;27.62;35.62;101317.25;5110688;28;20269;-60